Freelance — WSP9410 — position and weather

sailwx.info

Track history (hours):
 
Tides and Currents Weather Stations Pressure Air Temp Water Temp Dewpoint Dewpoint Depression Visibility Wind Speed Wind Dir Waves Ship Positions

Freelance

Owner: BROCKMAN, DONALD C, BALBOA, CA. More information available from US FCC via Universal Licensing System and Coast Guard Vessel Documentation Center.

Last reported at 2018-Jun-25 15:30 UTC. Time now 2018-Jun-25 15:48 UTC.
Position N 33°39' W 118°06'.

Length 25 m.

Type: Passenger vessel. MMSI: 366977380.

Date/timePositionNaut miles runAvg speedWind from/ knotsBaromVisibWave heightAir tempDewpointWater temp
2018-Jun-25 15:30N 33°39' W 118°06'2 4.6
2018-Jun-25 15:01N 33°38' W 118°04'610.8
2018-Jun-25 14:28N 33°36' W 117°57'4 8.1
2018-Jun-25 14:01N 33°36' W 117°53'1 2.3
2018-Jun-25 13:30N 33°36' W 117°54'0 0.1
2018-Jun-25 13:00N 33°36' W 117°54'0 0.0
2018-Jun-25 09:31N 33°36' W 117°54'0 0.0
2018-Jun-25 09:26N 33°36' W 117°54'0 0.0
2018-Jun-25 08:54N 33°36' W 117°54'1 3.2
2018-Jun-25 08:31N 33°35' W 117°53'2 4.3
2018-Jun-25 08:00N 33°36' W 117°55'510.3
2018-Jun-25 07:29N 33°37' W 118°02'4 8.3
2018-Jun-25 07:00N 33°39' W 118°06'0 0.1
2018-Jun-25 06:29N 33°39' W 118°06'0 0.0
2018-Jun-25 06:00N 33°39' W 118°06'0 0.0
2018-Jun-25 05:30N 33°39' W 118°06'0 0.0
2018-Jun-25 05:00N 33°39' W 118°06'0 0.1
2018-Jun-25 04:30N 33°39' W 118°06'1 1.1
2018-Jun-25 04:00N 33°39' W 118°06'3 6.3
2018-Jun-25 03:30N 33°37' W 118°02'3 5.7
2018-Jun-25 03:00N 33°36' W 117°59'510.9
2018-Jun-25 02:30N 33°35' W 117°53'1 2.2
2018-Jun-25 01:55N 33°36' W 117°54'0 0.0
2018-Jun-25 01:30N 33°36' W 117°54'0 0.0
2018-Jun-25 01:00N 33°36' W 117°54'0 0.0
2018-Jun-25 00:30N 33°36' W 117°54'1 2.2
2018-Jun-24 23:54N 33°35' W 117°53'3 8.8
2018-Jun-24 23:30N 33°37' W 117°57'5 9.6
2018-Jun-24 22:59N 33°40' W 118°01'0 0.9
2018-Jun-24 22:29N 33°40' W 118°02'3 7.0
2018-Jun-24 22:00N 33°40' W 118°06'0 0.0
2018-Jun-24 21:30N 33°40' W 118°06'0 0.0
2018-Jun-24 20:59N 33°40' W 118°06'0 0.4
2018-Jun-24 20:30N 33°40' W 118°06'510.6
2018-Jun-24 20:00N 33°40' W 118°12'1 2.2
2018-Jun-24 19:31N 33°40' W 118°14'3 5.3
2018-Jun-24 19:00N 33°38' W 118°11'1 2.5
2018-Jun-24 18:30N 33°37' W 118°12'0 0.1
2018-Jun-24 18:01N 33°37' W 118°12'1 2.0
2018-Jun-24 17:30N 33°36' W 118°11'0 0.1
2018-Jun-24 16:59N 33°36' W 118°11'0 0.0
2018-Jun-24 16:30N 33°36' W 118°11'0 0.7
2018-Jun-24 16:00N 33°36' W 118°11'510.3
2018-Jun-24 15:30N 33°38' W 118°05'3 6.8
2018-Jun-24 15:00N 33°39' W 118°01'610.6
2018-Jun-24 14:29N 33°36' W 117°56'2 0.3
2018-Jun-24 06:09N 33°37' W 117°58'2 1.5
2018-Jun-24 05:07N 33°38' W 117°60'1 8.4
2018-Jun-24 05:00N 33°38' W 118°01'1 2.8
2018-Jun-24 04:29N 33°39' W 118°02'2 3.1
2018-Jun-24 03:55N 33°37' W 118°02'0 0.0
2018-Jun-24 03:29N 33°37' W 118°02'2 3.6
2018-Jun-24 03:00N 33°36' W 118°01'1 0.2
2018-Jun-23 21:29N 33°35' W 117°60'510.2
2018-Jun-23 21:00N 33°36' W 118°06'4 9.1
2018-Jun-23 20:31N 33°36' W 118°11'0 0.1
2018-Jun-23 19:59N 33°36' W 118°11'0 0.0
2018-Jun-23 19:29N 33°36' W 118°11'0 0.0
2018-Jun-23 19:00N 33°36' W 118°11'1 2.8
2018-Jun-23 18:30N 33°36' W 118°10'510.3
2018-Jun-23 17:59N 33°35' W 118°03'510.2
2018-Jun-23 17:30N 33°35' W 117°57'2 0.2
2018-Jun-23 06:06N 33°37' W 117°58'0 0.5
2018-Jun-23 06:00N 33°37' W 117°58'0 0.0
2018-Jun-23 05:30N 33°37' W 117°58'0 0.0
2018-Jun-23 05:00N 33°37' W 117°58'0 0.7
2018-Jun-23 04:30N 33°37' W 117°58'4 1.0
2018-Jun-23 00:35N 33°34' W 117°54'910.5
2018-Jun-22 23:44N 33°29' W 118°03'210.5
2018-Jun-22 23:30N 33°28' W 118°05'14 3.5
2018-Jun-22 19:29N 33°24' W 118°22'8 6.9
2018-Jun-22 18:19N 33°31' W 118°16'310.3
2018-Jun-22 18:00N 33°34' W 118°14'2 3.9
2018-Jun-22 17:30N 33°35' W 118°13'0 0.0
2018-Jun-22 16:58N 33°35' W 118°13'2 3.3
2018-Jun-22 16:30N 33°36' W 118°11'0 0.1
2018-Jun-22 16:00N 33°36' W 118°11'1 2.5
2018-Jun-22 15:30N 33°36' W 118°10'510.4
2018-Jun-22 14:59N 33°36' W 118°03'510.2
2018-Jun-22 14:29N 33°35' W 117°57'2 0.2
2018-Jun-22 06:13N 33°37' W 117°58'0 0.1
2018-Jun-22 05:58N 33°37' W 117°58'1 0.7
2018-Jun-22 05:09N 33°37' W 117°58'0 0.0
2018-Jun-22 05:00N 33°37' W 117°58'0 0.0
2018-Jun-22 04:30N 33°37' W 117°58'5 1.2
2018-Jun-22 00:35N 33°35' W 117°54'210.8
2018-Jun-22 00:21N 33°33' W 117°56'1110.6
2018-Jun-21 23:20N 33°27' W 118°06'12 4.6
2018-Jun-21 20:45N 33°21' W 118°19'13 4.6
2018-Jun-21 18:02N 33°32' W 118°14'110.1
2018-Jun-21 17:57N 33°33' W 118°13'3 6.5
2018-Jun-21 17:30N 33°36' W 118°11'0 0.0
2018-Jun-21 16:59N 33°36' W 118°11'0 0.0
2018-Jun-21 16:30N 33°36' W 118°11'0 0.0
2018-Jun-21 16:00N 33°36' W 118°11'3 5.2
2018-Jun-21 15:30N 33°36' W 118°08'510.2
2018-Jun-21 15:00N 33°35' W 118°02'510.0
2018-Jun-21 14:30N 33°35' W 117°56'2 0.2
2018-Jun-21 01:04N 33°34' W 117°54'311.0
2018-Jun-21 00:47N 33°33' W 117°57'510.9
2018-Jun-21 00:18N 33°29' W 118°02'410.6
2018-Jun-20 23:56N 33°27' W 118°05'14 2.7
2018-Jun-20 18:41N 33°24' W 118°22'12 8.6
2018-Jun-20 17:21N 33°33' W 118°14'3 9.1
2018-Jun-20 17:01N 33°36' W 118°11'0 0.1
2018-Jun-20 16:29N 33°36' W 118°11'0 0.0
2018-Jun-20 16:01N 33°36' W 118°11'1 2.9
2018-Jun-20 15:30N 33°36' W 118°10'510.3
2018-Jun-20 15:00N 33°36' W 118°03'510.1
2018-Jun-20 14:30N 33°35' W 117°57'4 0.3
2018-Jun-20 01:13N 33°35' W 117°53'310.7
2018-Jun-20 00:57N 33°33' W 117°55'510.9
2018-Jun-20 00:27N 33°30' W 118°00'12 1.6
2018-Jun-19 17:12N 33°31' W 118°14'210.5
2018-Jun-19 17:00N 33°33' W 118°13'510.4
2018-Jun-19 16:30N 33°37' W 118°09'510.5
2018-Jun-19 16:00N 33°41' W 118°05'2 4.1
2018-Jun-19 15:30N 33°39' W 118°03'5 9.9
2018-Jun-19 15:00N 33°36' W 117°58'5 0.4
2018-Jun-19 01:25N 33°35' W 117°53'510.5
2018-Jun-19 00:54N 33°31' W 117°58'510.6
2018-Jun-19 00:25N 33°28' W 118°03'9 0.9
2018-Jun-18 14:20N 33°34' W 117°54'0 0.0
2018-Jun-18 02:08N 33°34' W 117°54'411.0
2018-Jun-18 01:48N 33°32' W 117°57'1 0.1
2018-Jun-17 14:34N 33°32' W 117°58'210.4
2018-Jun-17 14:23N 33°33' W 117°56'4 0.4
2018-Jun-17 06:18N 33°37' W 117°57'1 2.2
2018-Jun-17 05:57N 33°37' W 117°58'0 0.0
2018-Jun-17 05:24N 33°37' W 117°58'0 0.4
2018-Jun-17 04:57N 33°37' W 117°58'0 0.4
2018-Jun-17 03:53N 33°37' W 117°58'2 4.7
2018-Jun-17 03:30N 33°36' W 117°56'0 0.1
2018-Jun-17 00:26N 33°36' W 117°56'510.3
2018-Jun-16 23:58N 33°37' W 118°02'510.6
2018-Jun-16 23:29N 33°38' W 118°08'510.4
2018-Jun-16 23:00N 33°40' W 118°14'0 0.1
2018-Jun-16 22:30N 33°40' W 118°14'0 0.0
2018-Jun-16 22:00N 33°40' W 118°14'0 0.0
2018-Jun-16 21:30N 33°40' W 118°14'0 0.0
2018-Jun-16 21:00N 33°40' W 118°14'0 0.0
2018-Jun-16 20:30N 33°40' W 118°14'4 7.5
2018-Jun-16 20:00N 33°36' W 118°12'1 1.5
2018-Jun-16 19:30N 33°36' W 118°11'0 0.1
2018-Jun-16 19:00N 33°36' W 118°11'0 0.0
2018-Jun-16 18:31N 33°36' W 118°11'3 5.5
2018-Jun-16 17:59N 33°38' W 118°13'1 3.0
2018-Jun-16 17:31N 33°39' W 118°13'0 0.0
2018-Jun-16 17:00N 33°39' W 118°13'2 3.4
2018-Jun-16 16:30N 33°39' W 118°11'4 7.8
2018-Jun-16 15:57N 33°39' W 118°06'1 1.3
2018-Jun-16 15:30N 33°39' W 118°06'3 6.6
2018-Jun-16 15:00N 33°37' W 118°03'510.2
2018-Jun-16 14:30N 33°36' W 117°57'4 0.5
2018-Jun-16 07:08N 33°36' W 117°53'1 8.0
2018-Jun-16 06:58N 33°35' W 117°54'3 7.5
2018-Jun-16 06:30N 33°37' W 117°58'0 1.0
2018-Jun-16 06:00N 33°37' W 117°58'0 0.1
2018-Jun-16 05:30N 33°37' W 117°58'4 7.1
2018-Jun-16 05:00N 33°37' W 118°02'1 2.8
2018-Jun-16 04:30N 33°37' W 118°04'2 4.0
2018-Jun-16 03:58N 33°39' W 118°02'0 1.0
2018-Jun-16 03:30N 33°39' W 118°03'2 3.0
2018-Jun-16 03:00N 33°38' W 118°01'510.6
2018-Jun-16 02:30N 33°36' W 117°55'1 0.2
2018-Jun-15 23:20N 33°36' W 117°56'410.7
2018-Jun-15 22:59N 33°37' W 118°00'511.1
2018-Jun-15 22:29N 33°38' W 118°07'5 9.5
2018-Jun-15 22:00N 33°39' W 118°12'1 2.7
2018-Jun-15 21:30N 33°40' W 118°14'0 0.0
2018-Jun-15 21:00N 33°40' W 118°14'0 0.0
2018-Jun-15 20:30N 33°40' W 118°14'0 0.0
2018-Jun-15 20:00N 33°40' W 118°14'0 0.0
2018-Jun-15 19:30N 33°40' W 118°14'0 0.0
2018-Jun-15 19:00N 33°40' W 118°14'0 0.0
2018-Jun-15 18:30N 33°40' W 118°14'0 0.1
2018-Jun-15 18:00N 33°40' W 118°14'2 4.2
2018-Jun-15 17:30N 33°38' W 118°13'3 5.1
2018-Jun-15 17:00N 33°36' W 118°11'0 0.0
2018-Jun-15 16:30N 33°36' W 118°11'1 1.2
2018-Jun-15 16:00N 33°36' W 118°10'  
Track history (hours):
 
Tides and Currents Weather Stations Pressure Air Temp Water Temp Dewpoint Dewpoint Depression Visibility Wind Speed Wind Dir Waves Ship Positions

Freelance

Owner: BROCKMAN, DONALD C, BALBOA, CA. More information available from US FCC via Universal Licensing System and Coast Guard Vessel Documentation Center.

Last reported at 2018-Jun-25 15:30 UTC. Time now 2018-Jun-25 15:48 UTC.
Position N 33°39' W 118°06'.

Length 25 m.

Type: Passenger vessel. MMSI: 366977380.

Date/timePositionNaut miles runAvg speedWind from/ knotsBaromVisibWave heightAir tempDewpointWater temp
2018-Jun-25 15:30N 33°39' W 118°06'2 4.6
2018-Jun-25 15:01N 33°38' W 118°04'610.8
2018-Jun-25 14:28N 33°36' W 117°57'4 8.1
2018-Jun-25 14:01N 33°36' W 117°53'1 2.3
2018-Jun-25 13:30N 33°36' W 117°54'0 0.1
2018-Jun-25 13:00N 33°36' W 117°54'0 0.0
2018-Jun-25 09:31N 33°36' W 117°54'0 0.0
2018-Jun-25 09:26N 33°36' W 117°54'0 0.0
2018-Jun-25 08:54N 33°36' W 117°54'1 3.2
2018-Jun-25 08:31N 33°35' W 117°53'2 4.3
2018-Jun-25 08:00N 33°36' W 117°55'510.3
2018-Jun-25 07:29N 33°37' W 118°02'4 8.3
2018-Jun-25 07:00N 33°39' W 118°06'0 0.1
2018-Jun-25 06:29N 33°39' W 118°06'0 0.0
2018-Jun-25 06:00N 33°39' W 118°06'0 0.0
2018-Jun-25 05:30N 33°39' W 118°06'0 0.0
2018-Jun-25 05:00N 33°39' W 118°06'0 0.1
2018-Jun-25 04:30N 33°39' W 118°06'1 1.1
2018-Jun-25 04:00N 33°39' W 118°06'3 6.3
2018-Jun-25 03:30N 33°37' W 118°02'3 5.7
2018-Jun-25 03:00N 33°36' W 117°59'510.9
2018-Jun-25 02:30N 33°35' W 117°53'1 2.2
2018-Jun-25 01:55N 33°36' W 117°54'0 0.0
2018-Jun-25 01:30N 33°36' W 117°54'0 0.0
2018-Jun-25 01:00N 33°36' W 117°54'0 0.0
2018-Jun-25 00:30N 33°36' W 117°54'1 2.2
2018-Jun-24 23:54N 33°35' W 117°53'3 8.8
2018-Jun-24 23:30N 33°37' W 117°57'5 9.6
2018-Jun-24 22:59N 33°40' W 118°01'0 0.9
2018-Jun-24 22:29N 33°40' W 118°02'3 7.0
2018-Jun-24 22:00N 33°40' W 118°06'0 0.0
2018-Jun-24 21:30N 33°40' W 118°06'0 0.0
2018-Jun-24 20:59N 33°40' W 118°06'0 0.4
2018-Jun-24 20:30N 33°40' W 118°06'510.6
2018-Jun-24 20:00N 33°40' W 118°12'1 2.2
2018-Jun-24 19:31N 33°40' W 118°14'3 5.3
2018-Jun-24 19:00N 33°38' W 118°11'1 2.5
2018-Jun-24 18:30N 33°37' W 118°12'0 0.1
2018-Jun-24 18:01N 33°37' W 118°12'1 2.0
2018-Jun-24 17:30N 33°36' W 118°11'0 0.1
2018-Jun-24 16:59N 33°36' W 118°11'0 0.0
2018-Jun-24 16:30N 33°36' W 118°11'0 0.7
2018-Jun-24 16:00N 33°36' W 118°11'510.3
2018-Jun-24 15:30N 33°38' W 118°05'3 6.8
2018-Jun-24 15:00N 33°39' W 118°01'610.6
2018-Jun-24 14:29N 33°36' W 117°56'2 0.3
2018-Jun-24 06:09N 33°37' W 117°58'2 1.5
2018-Jun-24 05:07N 33°38' W 117°60'1 8.4
2018-Jun-24 05:00N 33°38' W 118°01'1 2.8
2018-Jun-24 04:29N 33°39' W 118°02'2 3.1
2018-Jun-24 03:55N 33°37' W 118°02'0 0.0
2018-Jun-24 03:29N 33°37' W 118°02'2 3.6
2018-Jun-24 03:00N 33°36' W 118°01'1 0.2
2018-Jun-23 21:29N 33°35' W 117°60'510.2
2018-Jun-23 21:00N 33°36' W 118°06'4 9.1
2018-Jun-23 20:31N 33°36' W 118°11'0 0.1
2018-Jun-23 19:59N 33°36' W 118°11'0 0.0
2018-Jun-23 19:29N 33°36' W 118°11'0 0.0
2018-Jun-23 19:00N 33°36' W 118°11'1 2.8
2018-Jun-23 18:30N 33°36' W 118°10'510.3
2018-Jun-23 17:59N 33°35' W 118°03'510.2
2018-Jun-23 17:30N 33°35' W 117°57'2 0.2
2018-Jun-23 06:06N 33°37' W 117°58'0 0.5
2018-Jun-23 06:00N 33°37' W 117°58'0 0.0
2018-Jun-23 05:30N 33°37' W 117°58'0 0.0
2018-Jun-23 05:00N 33°37' W 117°58'0 0.7
2018-Jun-23 04:30N 33°37' W 117°58'4 1.0
2018-Jun-23 00:35N 33°34' W 117°54'910.5
2018-Jun-22 23:44N 33°29' W 118°03'210.5
2018-Jun-22 23:30N 33°28' W 118°05'14 3.5
2018-Jun-22 19:29N 33°24' W 118°22'8 6.9
2018-Jun-22 18:19N 33°31' W 118°16'310.3
2018-Jun-22 18:00N 33°34' W 118°14'2 3.9
2018-Jun-22 17:30N 33°35' W 118°13'0 0.0
2018-Jun-22 16:58N 33°35' W 118°13'2 3.3
2018-Jun-22 16:30N 33°36' W 118°11'0 0.1
2018-Jun-22 16:00N 33°36' W 118°11'1 2.5
2018-Jun-22 15:30N 33°36' W 118°10'510.4
2018-Jun-22 14:59N 33°36' W 118°03'510.2
2018-Jun-22 14:29N 33°35' W 117°57'2 0.2
2018-Jun-22 06:13N 33°37' W 117°58'0 0.1
2018-Jun-22 05:58N 33°37' W 117°58'1 0.7
2018-Jun-22 05:09N 33°37' W 117°58'0 0.0
2018-Jun-22 05:00N 33°37' W 117°58'0 0.0
2018-Jun-22 04:30N 33°37' W 117°58'5 1.2
2018-Jun-22 00:35N 33°35' W 117°54'210.8
2018-Jun-22 00:21N 33°33' W 117°56'1110.6
2018-Jun-21 23:20N 33°27' W 118°06'12 4.6
2018-Jun-21 20:45N 33°21' W 118°19'13 4.6
2018-Jun-21 18:02N 33°32' W 118°14'110.1
2018-Jun-21 17:57N 33°33' W 118°13'3 6.5
2018-Jun-21 17:30N 33°36' W 118°11'0 0.0
2018-Jun-21 16:59N 33°36' W 118°11'0 0.0
2018-Jun-21 16:30N 33°36' W 118°11'0 0.0
2018-Jun-21 16:00N 33°36' W 118°11'3 5.2
2018-Jun-21 15:30N 33°36' W 118°08'510.2
2018-Jun-21 15:00N 33°35' W 118°02'510.0
2018-Jun-21 14:30N 33°35' W 117°56'2 0.2
2018-Jun-21 01:04N 33°34' W 117°54'311.0
2018-Jun-21 00:47N 33°33' W 117°57'510.9
2018-Jun-21 00:18N 33°29' W 118°02'410.6
2018-Jun-20 23:56N 33°27' W 118°05'14 2.7
2018-Jun-20 18:41N 33°24' W 118°22'12 8.6
2018-Jun-20 17:21N 33°33' W 118°14'3 9.1
2018-Jun-20 17:01N 33°36' W 118°11'0 0.1
2018-Jun-20 16:29N 33°36' W 118°11'0 0.0
2018-Jun-20 16:01N 33°36' W 118°11'1 2.9
2018-Jun-20 15:30N 33°36' W 118°10'510.3
2018-Jun-20 15:00N 33°36' W 118°03'510.1
2018-Jun-20 14:30N 33°35' W 117°57'4 0.3
2018-Jun-20 01:13N 33°35' W 117°53'310.7
2018-Jun-20 00:57N 33°33' W 117°55'510.9
2018-Jun-20 00:27N 33°30' W 118°00'12 1.6
2018-Jun-19 17:12N 33°31' W 118°14'210.5
2018-Jun-19 17:00N 33°33' W 118°13'510.4
2018-Jun-19 16:30N 33°37' W 118°09'510.5
2018-Jun-19 16:00N 33°41' W 118°05'2 4.1
2018-Jun-19 15:30N 33°39' W 118°03'5 9.9
2018-Jun-19 15:00N 33°36' W 117°58'5 0.4
2018-Jun-19 01:25N 33°35' W 117°53'510.5
2018-Jun-19 00:54N 33°31' W 117°58'510.6
2018-Jun-19 00:25N 33°28' W 118°03'9 0.9
2018-Jun-18 14:20N 33°34' W 117°54'0 0.0
2018-Jun-18 02:08N 33°34' W 117°54'411.0
2018-Jun-18 01:48N 33°32' W 117°57'1 0.1
2018-Jun-17 14:34N 33°32' W 117°58'210.4
2018-Jun-17 14:23N 33°33' W 117°56'4 0.4
2018-Jun-17 06:18N 33°37' W 117°57'1 2.2
2018-Jun-17 05:57N 33°37' W 117°58'0 0.0
2018-Jun-17 05:24N 33°37' W 117°58'0 0.4
2018-Jun-17 04:57N 33°37' W 117°58'0 0.4
2018-Jun-17 03:53N 33°37' W 117°58'2 4.7
2018-Jun-17 03:30N 33°36' W 117°56'0 0.1
2018-Jun-17 00:26N 33°36' W 117°56'510.3
2018-Jun-16 23:58N 33°37' W 118°02'510.6
2018-Jun-16 23:29N 33°38' W 118°08'510.4
2018-Jun-16 23:00N 33°40' W 118°14'0 0.1
2018-Jun-16 22:30N 33°40' W 118°14'0 0.0
2018-Jun-16 22:00N 33°40' W 118°14'0 0.0
2018-Jun-16 21:30N 33°40' W 118°14'0 0.0
2018-Jun-16 21:00N 33°40' W 118°14'0 0.0
2018-Jun-16 20:30N 33°40' W 118°14'4 7.5
2018-Jun-16 20:00N 33°36' W 118°12'1 1.5
2018-Jun-16 19:30N 33°36' W 118°11'0 0.1
2018-Jun-16 19:00N 33°36' W 118°11'0 0.0
2018-Jun-16 18:31N 33°36' W 118°11'3 5.5
2018-Jun-16 17:59N 33°38' W 118°13'1 3.0
2018-Jun-16 17:31N 33°39' W 118°13'0 0.0
2018-Jun-16 17:00N 33°39' W 118°13'2 3.4
2018-Jun-16 16:30N 33°39' W 118°11'4 7.8
2018-Jun-16 15:57N 33°39' W 118°06'1 1.3
2018-Jun-16 15:30N 33°39' W 118°06'3 6.6
2018-Jun-16 15:00N 33°37' W 118°03'510.2
2018-Jun-16 14:30N 33°36' W 117°57'4 0.5
2018-Jun-16 07:08N 33°36' W 117°53'1 8.0
2018-Jun-16 06:58N 33°35' W 117°54'3 7.5
2018-Jun-16 06:30N 33°37' W 117°58'0 1.0
2018-Jun-16 06:00N 33°37' W 117°58'0 0.1
2018-Jun-16 05:30N 33°37' W 117°58'4 7.1
2018-Jun-16 05:00N 33°37' W 118°02'1 2.8
2018-Jun-16 04:30N 33°37' W 118°04'2 4.0
2018-Jun-16 03:58N 33°39' W 118°02'0 1.0
2018-Jun-16 03:30N 33°39' W 118°03'2 3.0
2018-Jun-16 03:00N 33°38' W 118°01'510.6
2018-Jun-16 02:30N 33°36' W 117°55'1 0.2
2018-Jun-15 23:20N 33°36' W 117°56'410.7
2018-Jun-15 22:59N 33°37' W 118°00'511.1
2018-Jun-15 22:29N 33°38' W 118°07'5 9.5
2018-Jun-15 22:00N 33°39' W 118°12'1 2.7
2018-Jun-15 21:30N 33°40' W 118°14'0 0.0
2018-Jun-15 21:00N 33°40' W 118°14'0 0.0
2018-Jun-15 20:30N 33°40' W 118°14'0 0.0
2018-Jun-15 20:00N 33°40' W 118°14'0 0.0
2018-Jun-15 19:30N 33°40' W 118°14'0 0.0
2018-Jun-15 19:00N 33°40' W 118°14'0 0.0
2018-Jun-15 18:30N 33°40' W 118°14'0 0.1
2018-Jun-15 18:00N 33°40' W 118°14'2 4.2
2018-Jun-15 17:30N 33°38' W 118°13'3 5.1
2018-Jun-15 17:00N 33°36' W 118°11'0 0.0
2018-Jun-15 16:30N 33°36' W 118°11'1 1.2
2018-Jun-15 16:00N 33°36' W 118°10'  

Dump ship's entire track history